KMVE/MVE METAR and TAF weather

Enter ICAO airport designator
Station Type Date Time Source
KMVE METAR 2022/06/26 08:55 UTC NOAA

KMVE 260855Z AUTO 29012G17KT 10SM CLR 15/07 A3013 RMK AO2 PWINO


Station Type Date Time Source
KMVE Decoded METAR 2022/06/26 08:55 UTC NOAA

Montevideo, Montevideo-Chippewa County Airport, MN, United States (KMVE) 44-58N 095-43W
Jun 26, 2022 - 04:55 AM EDT / 2022.06.26 0855 UTC
Wind: from the WNW (290 degrees) at 14 MPH (12 KT) gusting to 20 MPH (17 KT):0
Visibility: 10 mile(s):0
Sky conditions: clear
Temperature: 59 F (15 C)
Dew Point: 44 F (7 C)
Relative Humidity: 58%
Pressure (altimeter): 30.13 in. Hg (1020 hPa)
ob: KMVE 260855Z AUTO 29012G17KT 10SM CLR 15/07 A3013 RMK AO2 PWINO
cycle: 9

Station Type Date Time Source
KMVE TAF UTC NOAA

Error!

Example: see airport list